sensor_id;sensor_type;location;lat;lon;timestamp;temperature;humidity
5962;DHT22;3007;50.770;0.250;2022-08-19T00:00:11;19.40;99.90
5962;DHT22;3007;50.770;0.250;2022-08-19T00:02:39;19.50;99.90
5962;DHT22;3007;50.770;0.250;2022-08-19T00:05:08;19.40;99.90
5962;DHT22;3007;50.770;0.250;2022-08-19T00:07:35;19.40;99.90
5962;DHT22;3007;50.770;0.250;2022-08-19T00:10:03;19.40;99.90
5962;DHT22;3007;50.770;0.250;2022-08-19T00:12:30;19.40;99.90
5962;DHT22;3007;50.770;0.250;2022-08-19T00:14:57;19.40;99.90
5962;DHT22;3007;50.770;0.250;2022-08-19T00:17:25;19.50;99.90
5962;DHT22;3007;50.770;0.250;2022-08-19T00:19:52;19.50;99.90
5962;DHT22;3007;50.770;0.250;2022-08-19T00:22:19;19.50;99.90
5962;DHT22;3007;50.770;0.250;2022-08-19T00:24:46;19.50;99.90
5962;DHT22;3007;50.770;0.250;2022-08-19T00:27:13;19.50;99.90
5962;DHT22;3007;50.770;0.250;2022-08-19T00:29:40;19.40;99.90
5962;DHT22;3007;50.770;0.250;2022-08-19T00:32:07;19.40;99.90
5962;DHT22;3007;50.770;0.250;2022-08-19T00:34:35;19.50;99.90
5962;DHT22;3007;50.770;0.250;2022-08-19T00:37:02;19.40;99.90
5962;DHT22;3007;50.770;0.250;2022-08-19T00:39:29;19.40;99.90
5962;DHT22;3007;50.770;0.250;2022-08-19T00:41:56;19.40;99.90
5962;DHT22;3007;50.770;0.250;2022-08-19T00:44:26;19.40;99.90
5962;DHT22;3007;50.770;0.250;2022-08-19T00:46:56;19.40;99.90
5962;DHT22;3007;50.770;0.250;2022-08-19T00:49:29;19.40;99.90
5962;DHT22;3007;50.770;0.250;2022-08-19T00:52:01;19.40;99.90
5962;DHT22;3007;50.770;0.250;2022-08-19T00:54:29;19.40;99.90
5962;DHT22;3007;50.770;0.250;2022-08-19T00:56:57;19.40;99.90
5962;DHT22;3007;50.770;0.250;2022-08-19T00:59:25;19.40;99.90
5962;DHT22;3007;50.770;0.250;2022-08-19T01:01:53;19.40;99.90
5962;DHT22;3007;50.770;0.250;2022-08-19T01:04:20;19.40;99.90
5962;DHT22;3007;50.770;0.250;2022-08-19T01:06:47;19.40;99.90
5962;DHT22;3007;50.770;0.250;2022-08-19T01:09:16;19.40;99.90
5962;DHT22;3007;50.770;0.250;2022-08-19T01:11:44;19.40;99.90
5962;DHT22;3007;50.770;0.250;2022-08-19T01:14:12;19.40;99.90
5962;DHT22;3007;50.770;0.250;2022-08-19T01:16:40;19.40;99.90
5962;DHT22;3007;50.770;0.250;2022-08-19T01:19:14;19.40;99.90
5962;DHT22;3007;50.770;0.250;2022-08-19T01:21:45;19.40;99.90
5962;DHT22;3007;50.770;0.250;2022-08-19T01:24:16;19.40;99.90
5962;DHT22;3007;50.770;0.250;2022-08-19T01:26:44;19.40;99.90
5962;DHT22;3007;50.770;0.250;2022-08-19T01:29:11;19.40;99.90
5962;DHT22;3007;50.770;0.250;2022-08-19T01:31:39;19.40;99.90
5962;DHT22;3007;50.770;0.250;2022-08-19T01:34:07;19.40;99.90
5962;DHT22;3007;50.770;0.250;2022-08-19T01:36:36;19.40;99.90
5962;DHT22;3007;50.770;0.250;2022-08-19T01:39:05;19.40;99.90
5962;DHT22;3007;50.770;0.250;2022-08-19T01:41:34;19.40;99.90
5962;DHT22;3007;50.770;0.250;2022-08-19T01:44:03;19.40;99.90
5962;DHT22;3007;50.770;0.250;2022-08-19T01:46:31;19.40;99.90
5962;DHT22;3007;50.770;0.250;2022-08-19T01:48:58;19.40;99.90
5962;DHT22;3007;50.770;0.250;2022-08-19T01:51:25;19.40;99.90
5962;DHT22;3007;50.770;0.250;2022-08-19T01:53:52;19.40;99.90
5962;DHT22;3007;50.770;0.250;2022-08-19T01:56:20;19.40;99.90
5962;DHT22;3007;50.770;0.250;2022-08-19T01:58:53;19.50;99.90
5962;DHT22;3007;50.770;0.250;2022-08-19T02:01:22;19.50;99.90
5962;DHT22;3007;50.770;0.250;2022-08-19T02:03:56;19.50;99.90
5962;DHT22;3007;50.770;0.250;2022-08-19T02:06:24;19.50;99.90
5962;DHT22;3007;50.770;0.250;2022-08-19T02:08:50;19.40;99.90
5962;DHT22;3007;50.770;0.250;2022-08-19T02:11:20;19.50;99.90
5962;DHT22;3007;50.770;0.250;2022-08-19T02:13:49;19.50;99.90
5962;DHT22;3007;50.770;0.250;2022-08-19T02:16:17;19.50;99.90
5962;DHT22;3007;50.770;0.250;2022-08-19T02:18:43;19.50;99.90
5962;DHT22;3007;50.770;0.250;2022-08-19T02:21:11;19.40;99.90
5962;DHT22;3007;50.770;0.250;2022-08-19T02:23:38;19.40;99.90
5962;DHT22;3007;50.770;0.250;2022-08-19T02:26:05;19.40;99.90
5962;DHT22;3007;50.770;0.250;2022-08-19T02:28:32;19.40;99.90
5962;DHT22;3007;50.770;0.250;2022-08-19T02:31:00;19.40;99.90
5962;DHT22;3007;50.770;0.250;2022-08-19T02:33:28;19.40;99.90
5962;DHT22;3007;50.770;0.250;2022-08-19T02:35:55;19.40;99.90
5962;DHT22;3007;50.770;0.250;2022-08-19T02:38:22;19.50;99.90
5962;DHT22;3007;50.770;0.250;2022-08-19T02:40:52;19.40;99.90
5962;DHT22;3007;50.770;0.250;2022-08-19T02:43:19;19.40;99.90
5962;DHT22;3007;50.770;0.250;2022-08-19T02:45:47;19.40;99.90
5962;DHT22;3007;50.770;0.250;2022-08-19T02:48:17;19.50;99.90
5962;DHT22;3007;50.770;0.250;2022-08-19T02:50:45;19.40;99.90
5962;DHT22;3007;50.770;0.250;2022-08-19T02:53:12;19.50;99.90
5962;DHT22;3007;50.770;0.250;2022-08-19T02:55:43;19.40;99.90
5962;DHT22;3007;50.770;0.250;2022-08-19T02:58:11;19.40;99.90
5962;DHT22;3007;50.770;0.250;2022-08-19T03:00:42;19.40;99.90
5962;DHT22;3007;50.770;0.250;2022-08-19T03:03:09;19.40;99.90
5962;DHT22;3007;50.770;0.250;2022-08-19T03:05:40;19.40;99.90
5962;DHT22;3007;50.770;0.250;2022-08-19T03:08:07;19.40;99.90
5962;DHT22;3007;50.770;0.250;2022-08-19T03:10:40;19.40;99.90
5962;DHT22;3007;50.770;0.250;2022-08-19T03:13:10;19.40;99.90
5962;DHT22;3007;50.770;0.250;2022-08-19T03:15:39;19.40;99.90
5962;DHT22;3007;50.770;0.250;2022-08-19T03:18:06;19.40;99.90
5962;DHT22;3007;50.770;0.250;2022-08-19T03:20:33;19.40;99.90
5962;DHT22;3007;50.770;0.250;2022-08-19T03:23:01;19.40;99.90
5962;DHT22;3007;50.770;0.250;2022-08-19T03:25:28;19.40;99.90
5962;DHT22;3007;50.770;0.250;2022-08-19T03:27:55;19.40;99.90
5962;DHT22;3007;50.770;0.250;2022-08-19T03:30:22;19.40;99.90
5962;DHT22;3007;50.770;0.250;2022-08-19T03:32:48;19.40;99.90
5962;DHT22;3007;50.770;0.250;2022-08-19T03:35:15;19.40;99.90
5962;DHT22;3007;50.770;0.250;2022-08-19T03:37:42;19.40;99.90
5962;DHT22;3007;50.770;0.250;2022-08-19T03:40:11;19.40;99.90
5962;DHT22;3007;50.770;0.250;2022-08-19T03:42:38;19.30;99.90
5962;DHT22;3007;50.770;0.250;2022-08-19T03:45:08;19.30;99.90
5962;DHT22;3007;50.770;0.250;2022-08-19T03:47:36;19.30;99.90
5962;DHT22;3007;50.770;0.250;2022-08-19T03:50:03;19.30;99.90
5962;DHT22;3007;50.770;0.250;2022-08-19T03:52:31;19.30;99.90
5962;DHT22;3007;50.770;0.250;2022-08-19T03:54:57;19.30;99.90
5962;DHT22;3007;50.770;0.250;2022-08-19T03:57:26;19.30;99.90
5962;DHT22;3007;50.770;0.250;2022-08-19T03:59:52;19.30;99.90
5962;DHT22;3007;50.770;0.250;2022-08-19T04:02:19;19.30;99.90
5962;DHT22;3007;50.770;0.250;2022-08-19T04:04:47;19.30;99.90
5962;DHT22;3007;50.770;0.250;2022-08-19T04:07:14;19.30;99.90
5962;DHT22;3007;50.770;0.250;2022-08-19T04:09:43;19.30;99.90
5962;DHT22;3007;50.770;0.250;2022-08-19T04:12:10;19.30;99.90
5962;DHT22;3007;50.770;0.250;2022-08-19T04:14:38;19.30;99.90
5962;DHT22;3007;50.770;0.250;2022-08-19T04:17:05;19.30;99.90
5962;DHT22;3007;50.770;0.250;2022-08-19T04:19:35;19.40;99.90
5962;DHT22;3007;50.770;0.250;2022-08-19T04:22:04;19.30;99.90
5962;DHT22;3007;50.770;0.250;2022-08-19T04:24:32;19.30;99.90
5962;DHT22;3007;50.770;0.250;2022-08-19T04:27:00;19.30;99.90
5962;DHT22;3007;50.770;0.250;2022-08-19T04:29:28;19.30;99.90
5962;DHT22;3007;50.770;0.250;2022-08-19T04:31:58;19.30;99.90
5962;DHT22;3007;50.770;0.250;2022-08-19T04:34:26;19.40;99.90
5962;DHT22;3007;50.770;0.250;2022-08-19T04:36:56;19.40;99.90
5962;DHT22;3007;50.770;0.250;2022-08-19T04:39:25;19.40;99.90
5962;DHT22;3007;50.770;0.250;2022-08-19T04:42:12;19.40;99.90
5962;DHT22;3007;50.770;0.250;2022-08-19T04:44:58;19.40;99.90
5962;DHT22;3007;50.770;0.250;2022-08-19T04:47:26;19.40;99.90
5962;DHT22;3007;50.770;0.250;2022-08-19T04:49:53;19.40;99.90
5962;DHT22;3007;50.770;0.250;2022-08-19T04:52:20;19.40;99.90
5962;DHT22;3007;50.770;0.250;2022-08-19T04:54:47;19.30;99.90
5962;DHT22;3007;50.770;0.250;2022-08-19T04:57:14;19.40;99.90
5962;DHT22;3007;50.770;0.250;2022-08-19T04:59:41;19.40;99.90
5962;DHT22;3007;50.770;0.250;2022-08-19T05:02:08;19.30;99.90
5962;DHT22;3007;50.770;0.250;2022-08-19T05:04:36;19.30;99.90
5962;DHT22;3007;50.770;0.250;2022-08-19T05:07:05;19.30;99.90
5962;DHT22;3007;50.770;0.250;2022-08-19T05:09:32;19.30;99.90
5962;DHT22;3007;50.770;0.250;2022-08-19T05:11:59;19.30;99.90
5962;DHT22;3007;50.770;0.250;2022-08-19T05:14:26;19.30;99.90
5962;DHT22;3007;50.770;0.250;2022-08-19T05:16:54;19.40;99.90
5962;DHT22;3007;50.770;0.250;2022-08-19T05:19:21;19.40;99.90
5962;DHT22;3007;50.770;0.250;2022-08-19T05:22:06;19.40;99.90
5962;DHT22;3007;50.770;0.250;2022-08-19T05:24:51;19.40;99.90
5962;DHT22;3007;50.770;0.250;2022-08-19T05:27:18;19.40;99.90
5962;DHT22;3007;50.770;0.250;2022-08-19T05:29:45;19.40;99.90
5962;DHT22;3007;50.770;0.250;2022-08-19T05:32:11;19.50;99.90
5962;DHT22;3007;50.770;0.250;2022-08-19T05:34:38;19.50;99.90
5962;DHT22;3007;50.770;0.250;2022-08-19T05:37:07;19.50;99.90
5962;DHT22;3007;50.770;0.250;2022-08-19T05:39:36;19.50;99.90
5962;DHT22;3007;50.770;0.250;2022-08-19T05:42:05;19.50;99.90
5962;DHT22;3007;50.770;0.250;2022-08-19T05:44:34;19.60;99.90
5962;DHT22;3007;50.770;0.250;2022-08-19T05:47:04;19.60;99.90
5962;DHT22;3007;50.770;0.250;2022-08-19T05:49:33;19.60;99.90
5962;DHT22;3007;50.770;0.250;2022-08-19T05:52:02;19.60;99.90
5962;DHT22;3007;50.770;0.250;2022-08-19T05:54:31;19.60;99.90
5962;DHT22;3007;50.770;0.250;2022-08-19T05:56:58;19.70;99.90
5962;DHT22;3007;50.770;0.250;2022-08-19T05:59:26;19.70;99.90
5962;DHT22;3007;50.770;0.250;2022-08-19T06:01:54;19.70;99.90
5962;DHT22;3007;50.770;0.250;2022-08-19T06:04:22;19.70;99.90
5962;DHT22;3007;50.770;0.250;2022-08-19T06:06:51;19.80;99.90
5962;DHT22;3007;50.770;0.250;2022-08-19T06:09:18;19.80;99.90
5962;DHT22;3007;50.770;0.250;2022-08-19T06:11:50;19.90;99.90
5962;DHT22;3007;50.770;0.250;2022-08-19T06:14:20;20.30;99.90
5962;DHT22;3007;50.770;0.250;2022-08-19T06:16:48;20.70;99.90
5962;DHT22;3007;50.770;0.250;2022-08-19T06:19:19;21.20;99.90
5962;DHT22;3007;50.770;0.250;2022-08-19T06:21:48;21.50;99.90
5962;DHT22;3007;50.770;0.250;2022-08-19T06:24:18;21.70;99.90
5962;DHT22;3007;50.770;0.250;2022-08-19T06:26:48;21.60;99.90
5962;DHT22;3007;50.770;0.250;2022-08-19T06:29:17;21.60;99.90
5962;DHT22;3007;50.770;0.250;2022-08-19T06:31:48;21.70;99.90
5962;DHT22;3007;50.770;0.250;2022-08-19T06:34:17;21.70;99.90
5962;DHT22;3007;50.770;0.250;2022-08-19T06:36:46;21.90;99.90
5962;DHT22;3007;50.770;0.250;2022-08-19T06:39:16;22.00;99.90
5962;DHT22;3007;50.770;0.250;2022-08-19T06:41:47;22.20;99.90
5962;DHT22;3007;50.770;0.250;2022-08-19T06:44:15;22.40;99.90
5962;DHT22;3007;50.770;0.250;2022-08-19T06:46:45;22.50;99.90
5962;DHT22;3007;50.770;0.250;2022-08-19T06:49:12;22.40;99.90
5962;DHT22;3007;50.770;0.250;2022-08-19T06:51:41;22.40;99.90
5962;DHT22;3007;50.770;0.250;2022-08-19T06:54:09;22.40;99.90
5962;DHT22;3007;50.770;0.250;2022-08-19T06:56:37;22.20;99.90
5962;DHT22;3007;50.770;0.250;2022-08-19T06:59:06;22.10;99.90
5962;DHT22;3007;50.770;0.250;2022-08-19T07:01:35;22.00;99.90
5962;DHT22;3007;50.770;0.250;2022-08-19T07:04:03;22.00;99.90
5962;DHT22;3007;50.770;0.250;2022-08-19T07:06:30;21.90;99.90
5962;DHT22;3007;50.770;0.250;2022-08-19T07:08:57;21.90;99.90
5962;DHT22;3007;50.770;0.250;2022-08-19T07:11:25;21.90;99.90
5962;DHT22;3007;50.770;0.250;2022-08-19T07:13:52;21.80;99.90
5962;DHT22;3007;50.770;0.250;2022-08-19T07:16:20;21.70;99.90
5962;DHT22;3007;50.770;0.250;2022-08-19T07:18:48;21.60;99.90
5962;DHT22;3007;50.770;0.250;2022-08-19T07:21:17;21.50;99.90
5962;DHT22;3007;50.770;0.250;2022-08-19T07:23:45;21.40;99.90
5962;DHT22;3007;50.770;0.250;2022-08-19T07:26:15;21.30;99.90
5962;DHT22;3007;50.770;0.250;2022-08-19T07:28:42;21.30;99.90
5962;DHT22;3007;50.770;0.250;2022-08-19T07:31:13;21.30;99.90
5962;DHT22;3007;50.770;0.250;2022-08-19T07:33:45;21.30;99.90
5962;DHT22;3007;50.770;0.250;2022-08-19T07:36:14;21.30;99.90
5962;DHT22;3007;50.770;0.250;2022-08-19T07:38:43;21.20;99.90
5962;DHT22;3007;50.770;0.250;2022-08-19T07:41:12;21.20;99.90
5962;DHT22;3007;50.770;0.250;2022-08-19T07:43:40;21.20;99.90
5962;DHT22;3007;50.770;0.250;2022-08-19T07:46:09;21.20;99.90
5962;DHT22;3007;50.770;0.250;2022-08-19T07:48:43;21.20;99.90
5962;DHT22;3007;50.770;0.250;2022-08-19T07:51:13;21.20;99.90
5962;DHT22;3007;50.770;0.250;2022-08-19T07:53:40;21.20;99.90
5962;DHT22;3007;50.770;0.250;2022-08-19T07:56:07;21.20;99.90
5962;DHT22;3007;50.770;0.250;2022-08-19T07:58:36;21.20;99.90
5962;DHT22;3007;50.770;0.250;2022-08-19T08:01:06;21.30;99.90
5962;DHT22;3007;50.770;0.250;2022-08-19T08:03:33;21.30;99.90
5962;DHT22;3007;50.770;0.250;2022-08-19T08:06:19;21.30;99.90
5962;DHT22;3007;50.770;0.250;2022-08-19T08:09:04;21.30;99.90
5962;DHT22;3007;50.770;0.250;2022-08-19T08:11:37;21.60;99.90
5962;DHT22;3007;50.770;0.250;2022-08-19T08:14:05;21.80;99.90
5962;DHT22;3007;50.770;0.250;2022-08-19T08:16:34;21.90;99.90
5962;DHT22;3007;50.770;0.250;2022-08-19T08:19:02;21.90;99.90
5962;DHT22;3007;50.770;0.250;2022-08-19T08:21:32;22.00;99.90
5962;DHT22;3007;50.770;0.250;2022-08-19T08:23:59;22.10;99.90
5962;DHT22;3007;50.770;0.250;2022-08-19T08:26:26;22.10;99.90
5962;DHT22;3007;50.770;0.250;2022-08-19T08:28:53;22.30;99.90
5962;DHT22;3007;50.770;0.250;2022-08-19T08:31:20;22.40;99.90
5962;DHT22;3007;50.770;0.250;2022-08-19T08:33:49;22.70;99.90
5962;DHT22;3007;50.770;0.250;2022-08-19T08:36:18;22.80;99.90
5962;DHT22;3007;50.770;0.250;2022-08-19T08:38:46;22.80;99.90
5962;DHT22;3007;50.770;0.250;2022-08-19T08:41:20;22.80;99.90
5962;DHT22;3007;50.770;0.250;2022-08-19T08:43:51;22.80;99.90
5962;DHT22;3007;50.770;0.250;2022-08-19T08:46:23;22.80;99.90
5962;DHT22;3007;50.770;0.250;2022-08-19T08:48:53;23.00;99.90
5962;DHT22;3007;50.770;0.250;2022-08-19T08:51:25;23.10;99.90
5962;DHT22;3007;50.770;0.250;2022-08-19T08:53:55;23.10;99.90
5962;DHT22;3007;50.770;0.250;2022-08-19T08:56:22;23.10;99.90
5962;DHT22;3007;50.770;0.250;2022-08-19T08:58:57;23.00;99.90
5962;DHT22;3007;50.770;0.250;2022-08-19T09:01:25;22.90;99.90
5962;DHT22;3007;50.770;0.250;2022-08-19T09:03:53;22.90;99.90
5962;DHT22;3007;50.770;0.250;2022-08-19T09:06:25;22.80;99.90
5962;DHT22;3007;50.770;0.250;2022-08-19T09:09:01;22.80;99.90
5962;DHT22;3007;50.770;0.250;2022-08-19T09:11:41;22.80;99.90
5962;DHT22;3007;50.770;0.250;2022-08-19T09:14:16;22.80;99.90
5962;DHT22;3007;50.770;0.250;2022-08-19T09:16:45;22.90;99.90
5962;DHT22;3007;50.770;0.250;2022-08-19T09:19:15;22.90;99.90
5962;DHT22;3007;50.770;0.250;2022-08-19T09:21:43;22.80;99.90
5962;DHT22;3007;50.770;0.250;2022-08-19T09:24:12;22.80;99.90
5962;DHT22;3007;50.770;0.250;2022-08-19T09:26:39;22.70;99.90
5962;DHT22;3007;50.770;0.250;2022-08-19T09:29:05;22.60;99.90
5962;DHT22;3007;50.770;0.250;2022-08-19T09:31:33;22.60;99.90
5962;DHT22;3007;50.770;0.250;2022-08-19T09:34:00;22.50;99.90
5962;DHT22;3007;50.770;0.250;2022-08-19T09:36:30;22.50;99.90
5962;DHT22;3007;50.770;0.250;2022-08-19T09:39:02;22.40;99.90
5962;DHT22;3007;50.770;0.250;2022-08-19T09:41:33;22.40;99.90
5962;DHT22;3007;50.770;0.250;2022-08-19T09:44:00;22.40;99.90
5962;DHT22;3007;50.770;0.250;2022-08-19T09:46:28;22.60;99.90
5962;DHT22;3007;50.770;0.250;2022-08-19T09:48:59;23.00;99.90
5962;DHT22;3007;50.770;0.250;2022-08-19T09:51:28;23.20;99.90
5962;DHT22;3007;50.770;0.250;2022-08-19T09:53:59;23.40;99.90
5962;DHT22;3007;50.770;0.250;2022-08-19T09:56:26;23.60;99.90
5962;DHT22;3007;50.770;0.250;2022-08-19T09:58:55;23.90;99.90
5962;DHT22;3007;50.770;0.250;2022-08-19T10:01:23;24.10;99.90
5962;DHT22;3007;50.770;0.250;2022-08-19T10:03:52;24.10;99.90
5962;DHT22;3007;50.770;0.250;2022-08-19T10:06:20;24.00;99.90
5962;DHT22;3007;50.770;0.250;2022-08-19T10:08:47;23.90;99.90
5962;DHT22;3007;50.770;0.250;2022-08-19T10:11:18;23.90;99.90
5962;DHT22;3007;50.770;0.250;2022-08-19T10:13:46;23.90;99.90
5962;DHT22;3007;50.770;0.250;2022-08-19T10:16:18;23.90;99.90
5962;DHT22;3007;50.770;0.250;2022-08-19T10:18:46;23.90;99.90
5962;DHT22;3007;50.770;0.250;2022-08-19T10:21:17;24.00;99.90
5962;DHT22;3007;50.770;0.250;2022-08-19T10:23:46;24.20;99.90
5962;DHT22;3007;50.770;0.250;2022-08-19T10:26:16;24.40;99.90
5962;DHT22;3007;50.770;0.250;2022-08-19T10:28:43;24.60;99.90
5962;DHT22;3007;50.770;0.250;2022-08-19T10:31:12;24.70;99.90
5962;DHT22;3007;50.770;0.250;2022-08-19T10:33:41;24.90;99.90
5962;DHT22;3007;50.770;0.250;2022-08-19T10:36:10;24.90;99.90
5962;DHT22;3007;50.770;0.250;2022-08-19T10:38:41;24.80;99.90
5962;DHT22;3007;50.770;0.250;2022-08-19T10:41:10;24.70;99.90
5962;DHT22;3007;50.770;0.250;2022-08-19T10:43:37;24.60;99.90
5962;DHT22;3007;50.770;0.250;2022-08-19T10:46:06;24.60;99.90
5962;DHT22;3007;50.770;0.250;2022-08-19T10:48:33;24.50;99.90
5962;DHT22;3007;50.770;0.250;2022-08-19T10:51:02;24.60;99.90
5962;DHT22;3007;50.770;0.250;2022-08-19T10:53:46;24.60;99.90
5962;DHT22;3007;50.770;0.250;2022-08-19T10:56:14;24.60;99.90
5962;DHT22;3007;50.770;0.250;2022-08-19T10:58:59;24.50;99.90
5962;DHT22;3007;50.770;0.250;2022-08-19T11:01:28;24.50;99.90
5962;DHT22;3007;50.770;0.250;2022-08-19T11:03:56;24.50;99.90
5962;DHT22;3007;50.770;0.250;2022-08-19T11:06:25;24.50;99.90
5962;DHT22;3007;50.770;0.250;2022-08-19T11:08:52;24.70;99.90
5962;DHT22;3007;50.770;0.250;2022-08-19T11:11:20;24.90;99.90
5962;DHT22;3007;50.770;0.250;2022-08-19T11:13:48;25.00;99.90
5962;DHT22;3007;50.770;0.250;2022-08-19T11:16:16;24.90;99.90
5962;DHT22;3007;50.770;0.250;2022-08-19T11:18:50;24.80;99.90
5962;DHT22;3007;50.770;0.250;2022-08-19T11:21:22;24.70;99.90
5962;DHT22;3007;50.770;0.250;2022-08-19T11:23:53;24.50;99.90
5962;DHT22;3007;50.770;0.250;2022-08-19T11:26:21;24.40;99.90
5962;DHT22;3007;50.770;0.250;2022-08-19T11:28:49;24.20;99.90
5962;DHT22;3007;50.770;0.250;2022-08-19T11:31:20;24.00;99.90
5962;DHT22;3007;50.770;0.250;2022-08-19T11:33:47;23.80;99.90
5962;DHT22;3007;50.770;0.250;2022-08-19T11:36:16;23.70;99.90
5962;DHT22;3007;50.770;0.250;2022-08-19T11:38:44;23.50;99.90
5962;DHT22;3007;50.770;0.250;2022-08-19T11:41:16;23.30;99.90
5962;DHT22;3007;50.770;0.250;2022-08-19T11:43:43;23.20;99.90
5962;DHT22;3007;50.770;0.250;2022-08-19T11:46:12;23.20;99.90
5962;DHT22;3007;50.770;0.250;2022-08-19T11:48:40;23.10;99.90
5962;DHT22;3007;50.770;0.250;2022-08-19T11:51:09;23.10;99.90
5962;DHT22;3007;50.770;0.250;2022-08-19T11:53:37;23.10;99.90
5962;DHT22;3007;50.770;0.250;2022-08-19T11:56:06;23.00;99.90
5962;DHT22;3007;50.770;0.250;2022-08-19T11:58:35;23.00;99.90
5962;DHT22;3007;50.770;0.250;2022-08-19T12:01:05;22.90;99.90
5962;DHT22;3007;50.770;0.250;2022-08-19T12:03:32;22.90;99.90
5962;DHT22;3007;50.770;0.250;2022-08-19T12:06:03;22.90;99.90
5962;DHT22;3007;50.770;0.250;2022-08-19T12:08:30;22.90;99.90
5962;DHT22;3007;50.770;0.250;2022-08-19T12:10:57;23.00;99.90
5962;DHT22;3007;50.770;0.250;2022-08-19T12:13:26;23.00;99.90
5962;DHT22;3007;50.770;0.250;2022-08-19T12:15:55;23.00;99.90
5962;DHT22;3007;50.770;0.250;2022-08-19T12:18:22;23.00;99.90
5962;DHT22;3007;50.770;0.250;2022-08-19T12:20:51;23.10;99.90
5962;DHT22;3007;50.770;0.250;2022-08-19T12:23:18;23.20;99.90
5962;DHT22;3007;50.770;0.250;2022-08-19T12:25:47;23.30;99.90
5962;DHT22;3007;50.770;0.250;2022-08-19T12:28:15;23.30;99.90
5962;DHT22;3007;50.770;0.250;2022-08-19T12:30:42;23.20;99.90
5962;DHT22;3007;50.770;0.250;2022-08-19T12:33:11;23.20;99.90
5962;DHT22;3007;50.770;0.250;2022-08-19T12:35:40;23.20;99.90
5962;DHT22;3007;50.770;0.250;2022-08-19T12:38:07;23.20;99.90
5962;DHT22;3007;50.770;0.250;2022-08-19T12:40:36;23.10;99.90
5962;DHT22;3007;50.770;0.250;2022-08-19T12:43:06;23.20;99.90
5962;DHT22;3007;50.770;0.250;2022-08-19T12:45:33;23.30;99.90
5962;DHT22;3007;50.770;0.250;2022-08-19T12:48:00;23.50;99.90
5962;DHT22;3007;50.770;0.250;2022-08-19T12:50:30;23.70;99.90
5962;DHT22;3007;50.770;0.250;2022-08-19T12:52:57;23.80;99.90
5962;DHT22;3007;50.770;0.250;2022-08-19T12:55:24;24.00;99.90
5962;DHT22;3007;50.770;0.250;2022-08-19T12:57:53;24.10;99.90
5962;DHT22;3007;50.770;0.250;2022-08-19T13:00:22;24.20;99.90
5962;DHT22;3007;50.770;0.250;2022-08-19T13:02:51;24.20;99.90
5962;DHT22;3007;50.770;0.250;2022-08-19T13:05:19;24.30;99.90
5962;DHT22;3007;50.770;0.250;2022-08-19T13:07:50;24.40;99.90
5962;DHT22;3007;50.770;0.250;2022-08-19T13:10:19;24.50;99.90
5962;DHT22;3007;50.770;0.250;2022-08-19T13:12:49;24.70;99.90
5962;DHT22;3007;50.770;0.250;2022-08-19T13:15:17;24.80;99.90
5962;DHT22;3007;50.770;0.250;2022-08-19T13:17:47;25.00;99.90
5962;DHT22;3007;50.770;0.250;2022-08-19T13:20:15;25.20;99.90
5962;DHT22;3007;50.770;0.250;2022-08-19T13:22:42;25.10;99.90
5962;DHT22;3007;50.770;0.250;2022-08-19T13:25:12;24.90;99.90
5962;DHT22;3007;50.770;0.250;2022-08-19T13:27:39;24.70;99.90
5962;DHT22;3007;50.770;0.250;2022-08-19T13:30:08;24.40;99.90
5962;DHT22;3007;50.770;0.250;2022-08-19T13:32:53;24.30;99.90
5962;DHT22;3007;50.770;0.250;2022-08-19T13:35:41;24.10;99.90
5962;DHT22;3007;50.770;0.250;2022-08-19T13:38:09;24.00;99.90
5962;DHT22;3007;50.770;0.250;2022-08-19T13:40:38;23.80;99.90
5962;DHT22;3007;50.770;0.250;2022-08-19T13:43:05;23.70;99.90
5962;DHT22;3007;50.770;0.250;2022-08-19T13:45:33;23.60;99.90
5962;DHT22;3007;50.770;0.250;2022-08-19T13:48:02;23.70;99.90
5962;DHT22;3007;50.770;0.250;2022-08-19T13:50:33;23.70;99.90
5962;DHT22;3007;50.770;0.250;2022-08-19T13:53:00;23.90;99.90
5962;DHT22;3007;50.770;0.250;2022-08-19T13:55:28;24.00;99.90
5962;DHT22;3007;50.770;0.250;2022-08-19T13:57:58;24.10;99.90
5962;DHT22;3007;50.770;0.250;2022-08-19T14:00:26;24.20;99.90
5962;DHT22;3007;50.770;0.250;2022-08-19T14:02:55;24.20;99.90
5962;DHT22;3007;50.770;0.250;2022-08-19T14:05:24;24.30;99.90
5962;DHT22;3007;50.770;0.250;2022-08-19T14:07:54;24.40;99.90
5962;DHT22;3007;50.770;0.250;2022-08-19T14:10:21;24.50;99.90
5962;DHT22;3007;50.770;0.250;2022-08-19T14:12:51;24.60;99.90
5962;DHT22;3007;50.770;0.250;2022-08-19T14:15:20;24.50;99.90
5962;DHT22;3007;50.770;0.250;2022-08-19T14:17:47;24.40;99.90
5962;DHT22;3007;50.770;0.250;2022-08-19T14:20:15;24.30;99.90
5962;DHT22;3007;50.770;0.250;2022-08-19T14:22:44;24.00;99.90
5962;DHT22;3007;50.770;0.250;2022-08-19T14:25:18;23.80;99.90
5962;DHT22;3007;50.770;0.250;2022-08-19T14:27:46;23.80;99.90
5962;DHT22;3007;50.770;0.250;2022-08-19T14:30:17;23.70;99.90
5962;DHT22;3007;50.770;0.250;2022-08-19T14:32:46;23.70;99.90
5962;DHT22;3007;50.770;0.250;2022-08-19T14:35:14;23.70;99.90
5962;DHT22;3007;50.770;0.250;2022-08-19T14:37:42;23.70;99.90
5962;DHT22;3007;50.770;0.250;2022-08-19T14:40:11;23.60;99.90
5962;DHT22;3007;50.770;0.250;2022-08-19T14:42:38;23.50;99.90
5962;DHT22;3007;50.770;0.250;2022-08-19T14:45:07;23.40;99.90
5962;DHT22;3007;50.770;0.250;2022-08-19T14:47:34;23.30;99.90
5962;DHT22;3007;50.770;0.250;2022-08-19T14:50:03;23.30;99.90
5962;DHT22;3007;50.770;0.250;2022-08-19T14:52:32;23.20;99.90
5962;DHT22;3007;50.770;0.250;2022-08-19T14:54:59;23.10;99.90
5962;DHT22;3007;50.770;0.250;2022-08-19T14:57:26;23.00;99.90
5962;DHT22;3007;50.770;0.250;2022-08-19T14:59:53;22.90;99.90
5962;DHT22;3007;50.770;0.250;2022-08-19T15:02:20;22.90;99.90
5962;DHT22;3007;50.770;0.250;2022-08-19T15:04:47;22.80;99.90
5962;DHT22;3007;50.770;0.250;2022-08-19T15:07:15;22.90;99.90
5962;DHT22;3007;50.770;0.250;2022-08-19T15:09:49;22.90;99.90
5962;DHT22;3007;50.770;0.250;2022-08-19T15:12:16;22.90;99.90
5962;DHT22;3007;50.770;0.250;2022-08-19T15:14:42;22.90;99.90
5962;DHT22;3007;50.770;0.250;2022-08-19T15:17:09;22.80;99.90
5962;DHT22;3007;50.770;0.250;2022-08-19T15:19:36;22.70;99.90
5962;DHT22;3007;50.770;0.250;2022-08-19T15:22:03;22.70;99.90
5962;DHT22;3007;50.770;0.250;2022-08-19T15:24:32;22.70;99.90
5962;DHT22;3007;50.770;0.250;2022-08-19T15:27:01;22.60;99.90
5962;DHT22;3007;50.770;0.250;2022-08-19T15:29:28;22.50;99.90
5962;DHT22;3007;50.770;0.250;2022-08-19T15:31:55;22.50;99.90
5962;DHT22;3007;50.770;0.250;2022-08-19T15:34:22;22.40;99.90
5962;DHT22;3007;50.770;0.250;2022-08-19T15:36:50;22.30;99.90
5962;DHT22;3007;50.770;0.250;2022-08-19T15:39:17;22.20;99.90
5962;DHT22;3007;50.770;0.250;2022-08-19T15:41:46;22.10;99.90
5962;DHT22;3007;50.770;0.250;2022-08-19T15:44:15;22.10;99.90
5962;DHT22;3007;50.770;0.250;2022-08-19T15:46:44;22.10;99.90
5962;DHT22;3007;50.770;0.250;2022-08-19T15:49:13;22.10;99.90
5962;DHT22;3007;50.770;0.250;2022-08-19T15:51:43;22.10;99.90
5962;DHT22;3007;50.770;0.250;2022-08-19T15:54:12;21.90;99.90
5962;DHT22;3007;50.770;0.250;2022-08-19T15:56:40;21.90;99.90
5962;DHT22;3007;50.770;0.250;2022-08-19T15:59:27;21.90;99.90
5962;DHT22;3007;50.770;0.250;2022-08-19T16:02:11;21.80;99.90
5962;DHT22;3007;50.770;0.250;2022-08-19T16:04:56;21.70;99.90
5962;DHT22;3007;50.770;0.250;2022-08-19T16:07:41;21.70;99.90
5962;DHT22;3007;50.770;0.250;2022-08-19T16:10:09;21.70;99.90
5962;DHT22;3007;50.770;0.250;2022-08-19T16:12:36;21.60;99.90